createdAt,value
2018-09-19T04:05:29.730Z,4.10
2018-09-19T04:07:57.723Z,3.97
2018-09-19T04:10:25.637Z,4.30
2018-09-19T04:12:53.569Z,4.23
2018-09-19T04:15:21.524Z,5.53
2018-09-19T04:17:49.463Z,4.17
2018-09-19T04:20:17.360Z,4.40
2018-09-19T04:22:45.323Z,4.47
2018-09-19T04:25:13.286Z,4.70
2018-09-19T04:27:41.205Z,4.67
2018-09-19T04:30:09.118Z,4.20
2018-09-19T04:32:37.040Z,3.80
2018-09-19T04:35:04.960Z,4.67
2018-09-19T04:37:32.879Z,4.50
2018-09-19T04:40:00.877Z,4.50
2018-09-19T04:42:28.774Z,4.53
2018-09-19T04:44:56.690Z,4.40
2018-09-19T04:47:24.619Z,4.43
2018-09-19T04:49:52.531Z,4.87
2018-09-19T04:52:20.453Z,4.80
2018-09-19T04:54:48.358Z,4.70
2018-09-19T04:57:16.284Z,5.30
2018-09-19T04:59:44.195Z,4.70
2018-09-19T05:02:12.108Z,5.27
2018-09-19T05:04:40.033Z,4.90
2018-09-19T05:07:08.105Z,4.83
2018-09-19T05:09:36.069Z,4.37
2018-09-19T05:12:03.960Z,4.93
2018-09-19T05:14:31.897Z,4.30
2018-09-19T05:16:59.822Z,5.23
2018-09-19T05:19:27.749Z,4.70
2018-09-19T05:21:56.831Z,4.40
2018-09-19T05:24:24.752Z,4.27
2018-09-19T05:26:52.690Z,4.27
2018-09-19T05:29:20.608Z,4.27
2018-09-19T05:31:48.522Z,3.70
2018-09-19T05:34:16.444Z,4.47
2018-09-19T05:36:44.364Z,4.43
2018-09-19T05:39:12.388Z,5.40
2018-09-19T05:41:40.316Z,4.50
2018-09-19T05:44:08.332Z,4.27
2018-09-19T05:46:36.383Z,5.90
2018-09-19T05:49:04.340Z,5.47
2018-09-19T05:51:32.237Z,5.10
2018-09-19T05:54:00.273Z,5.00
2018-09-19T05:56:28.178Z,5.40
2018-09-19T05:58:56.138Z,5.00
2018-09-19T06:01:24.119Z,4.70
2018-09-19T06:03:52.038Z,4.43
2018-09-19T06:06:20.049Z,4.87
2018-09-19T06:08:48.047Z,4.33
2018-09-19T06:11:15.963Z,4.63
2018-09-19T06:13:43.976Z,3.87
2018-09-19T06:16:11.924Z,4.80
2018-09-19T06:18:39.875Z,4.93
2018-09-19T06:21:07.788Z,3.57
2018-09-19T06:23:35.838Z,5.40
2018-09-19T06:26:03.778Z,4.60
2018-09-19T06:28:31.695Z,4.83
2018-09-19T06:30:59.674Z,4.33
2018-09-19T06:33:27.644Z,4.60
2018-09-19T06:35:55.523Z,4.60
2018-09-19T06:38:23.458Z,4.40
2018-09-19T06:40:51.560Z,4.87
2018-09-19T06:43:19.391Z,4.60
2018-09-19T15:02:20.856Z,3.10
2018-09-19T15:04:48.880Z,2.63
2018-09-19T15:07:16.867Z,3.20
2018-09-19T15:09:44.890Z,3.60
2018-09-19T15:12:12.921Z,3.00
2018-09-19T15:14:40.881Z,2.90
2018-09-19T15:17:08.356Z,3.30
2018-09-19T15:19:36.421Z,4.37
2018-09-19T15:22:04.321Z,3.10
2018-09-19T15:24:32.312Z,3.20
2018-09-19T15:27:00.232Z,3.13
2018-09-19T15:29:28.244Z,3.43
2018-09-19T15:31:56.197Z,3.10
2018-09-19T15:34:24.183Z,3.37
2018-09-19T15:36:52.152Z,3.20
2018-09-19T15:39:20.072Z,3.23
2018-09-19T15:41:48.001Z,3.10
2018-09-19T15:44:16.089Z,3.30
2018-09-19T15:46:43.985Z,3.47
2018-09-19T15:49:12.398Z,3.33
2018-09-19T15:51:40.374Z,3.10
2018-09-19T15:54:08.303Z,4.07
2018-09-19T15:56:36.295Z,3.60
2018-09-19T15:59:04.212Z,3.50
2018-09-19T16:01:33.064Z,3.30
2018-09-19T16:04:01.036Z,3.40
2018-09-19T16:06:29.138Z,3.80
2018-09-19T16:08:57.045Z,3.37
2018-09-19T16:11:25.064Z,3.57
2018-09-19T16:13:53.033Z,4.23
2018-09-19T16:16:20.958Z,3.80
2018-09-19T16:18:48.988Z,3.80
2018-09-19T16:21:16.994Z,4.30
2018-09-19T16:23:44.900Z,3.60
2018-09-19T16:26:12.933Z,3.83
2018-09-19T16:28:40.856Z,4.13
2018-09-19T16:31:08.980Z,4.30
2018-09-19T16:33:37.004Z,4.47
2018-09-19T16:36:04.964Z,3.93
2018-09-19T16:38:32.922Z,4.10
2018-09-19T16:41:00.892Z,3.43
2018-09-19T16:43:28.808Z,3.97
2018-09-19T16:45:56.767Z,3.50
2018-09-19T16:48:24.716Z,3.97
2018-09-19T16:50:52.664Z,4.67
2018-09-19T16:53:20.623Z,4.60
2018-09-19T16:55:48.612Z,4.00
2018-09-19T16:58:16.641Z,3.93
2018-09-19T17:00:44.536Z,4.40
2018-09-19T17:03:13.352Z,4.70
2018-09-19T17:05:41.299Z,4.27
2018-09-19T17:08:09.268Z,4.63
2018-09-19T17:10:37.244Z,3.70
2018-09-19T17:13:05.203Z,4.30
2018-09-19T17:15:33.206Z,3.90
2018-09-19T17:18:01.043Z,4.37
2018-09-19T17:20:29.251Z,3.90
2018-09-19T17:22:57.164Z,4.30
2018-09-19T17:25:25.156Z,4.00
2018-09-19T17:27:53.201Z,4.60
2018-09-19T17:30:21.228Z,4.03
2018-09-19T17:32:49.168Z,4.60
2018-09-19T17:35:17.099Z,4.43
2018-09-19T17:37:45.145Z,4.00
2018-09-19T17:40:13.084Z,4.53
2018-09-19T17:42:40.999Z,5.43
2018-09-19T17:45:09.498Z,4.80
2018-09-19T17:47:37.470Z,4.60
2018-09-19T17:50:05.797Z,5.13
2018-09-19T17:52:33.762Z,4.70
2018-09-19T17:55:01.681Z,4.10
2018-09-19T17:57:29.816Z,4.73
2018-09-19T17:59:57.831Z,4.23
2018-09-19T18:02:25.739Z,4.33
2018-09-19T18:04:54.596Z,5.33
2018-09-19T18:07:22.528Z,4.40
2018-09-19T18:09:50.472Z,5.30
2018-09-19T18:12:18.498Z,5.00
2018-09-19T18:14:46.435Z,4.83
2018-09-19T18:17:14.366Z,5.30
2018-09-19T18:19:42.274Z,4.60
2018-09-19T18:22:10.311Z,4.00
2018-09-19T18:24:38.275Z,5.70
2018-09-19T18:27:06.283Z,4.67
2018-09-19T18:29:34.212Z,4.37
2018-09-19T18:32:02.183Z,4.40
2018-09-19T18:34:30.152Z,4.57
2018-09-19T18:36:58.123Z,4.40
2018-09-19T18:39:26.111Z,4.10
2018-09-19T18:41:54.047Z,4.10
2018-09-19T18:44:22.071Z,5.10
2018-09-19T18:46:50.072Z,4.70
2018-09-19T18:49:18.146Z,5.43
2018-09-19T18:51:46.064Z,4.70
2018-09-19T18:54:18.307Z,4.70
2018-09-19T18:56:46.305Z,4.67
2018-09-19T18:59:14.248Z,4.27
2018-09-19T19:01:42.457Z,5.13
2018-09-19T19:04:10.379Z,5.07
2018-09-19T19:06:39.669Z,4.30
2018-09-19T19:09:08.362Z,4.00
2018-09-19T19:11:36.374Z,4.50
2018-09-19T19:14:04.653Z,4.30
2018-09-19T19:16:32.672Z,4.50
2018-09-19T19:19:01.004Z,5.50
2018-09-19T19:21:29.072Z,4.57
2018-09-19T19:23:57.028Z,4.80
2018-09-19T19:26:24.988Z,4.90
2018-09-19T19:28:52.964Z,5.13
2018-09-19T19:31:21.160Z,4.43
2018-09-19T19:33:49.096Z,4.97
2018-09-19T19:36:17.146Z,4.70
2018-09-19T19:38:45.218Z,5.30
2018-09-19T19:41:13.126Z,4.50
2018-09-19T19:43:41.123Z,6.10
2018-09-19T19:46:09.229Z,5.37
2018-09-19T19:48:37.127Z,5.47
2018-09-19T19:51:05.169Z,4.97
2018-09-19T19:53:33.172Z,5.77
2018-09-19T19:56:01.240Z,5.77
2018-09-19T19:58:29.208Z,4.93
2018-09-19T20:00:57.155Z,5.30
2018-09-19T20:03:25.150Z,5.03
2018-09-19T20:05:53.068Z,5.70
2018-09-19T20:08:20.603Z,5.33
2018-09-19T20:10:48.513Z,4.40
2018-09-19T20:13:16.524Z,4.20
2018-09-19T20:15:44.080Z,4.63
2018-09-19T20:18:12.222Z,5.33
2018-09-19T20:20:40.124Z,5.23
2018-09-19T20:23:08.289Z,5.07
2018-09-19T20:25:36.276Z,5.37
2018-09-19T20:28:04.187Z,4.40
2018-09-19T20:30:32.274Z,5.27
2018-09-19T20:33:00.306Z,5.30
2018-09-19T20:35:28.188Z,4.83
2018-09-19T20:37:56.128Z,4.67
2018-09-19T20:43:05.742Z,6.27
2018-09-19T20:45:33.771Z,5.00
2018-09-19T20:48:01.784Z,4.50
2018-09-19T20:50:33.027Z,5.00
2018-09-19T20:53:05.542Z,4.60
2018-09-19T20:55:33.644Z,5.77
2018-09-19T20:58:03.312Z,5.20
2018-09-19T21:00:37.653Z,5.90
2018-09-19T21:03:16.282Z,5.20
2018-09-19T21:05:57.762Z,4.80
2018-09-19T21:08:31.055Z,6.40
2018-09-19T21:11:07.362Z,5.60
2018-09-19T21:13:41.689Z,5.43
2018-09-19T21:16:10.835Z,5.90
2018-09-19T21:18:38.787Z,5.47
2018-09-19T21:21:07.241Z,5.63
2018-09-19T21:23:36.534Z,6.10
2018-09-19T21:26:04.825Z,5.30
2018-09-19T21:28:33.048Z,5.07
2018-09-19T21:31:05.899Z,5.30
2018-09-19T21:33:33.905Z,5.13
2018-09-19T21:36:01.820Z,5.40
2018-09-19T21:38:29.848Z,5.40
2018-09-19T21:40:57.768Z,5.20
2018-09-19T21:43:25.693Z,5.57
2018-09-19T21:45:53.622Z,6.07
2018-09-19T21:48:21.685Z,5.47
2018-09-19T21:50:49.584Z,6.30
2018-09-19T21:53:17.494Z,5.90
2018-09-19T21:55:45.682Z,6.27
2018-09-19T21:58:14.398Z,6.00
2018-09-19T22:00:42.708Z,5.73
2018-09-19T22:03:10.648Z,5.20
2018-09-19T22:05:38.578Z,6.60
2018-09-19T22:08:06.495Z,6.37
2018-09-19T22:10:34.464Z,5.70
2018-09-19T22:13:02.412Z,7.00
2018-09-19T22:15:31.510Z,5.90
2018-09-19T22:17:59.488Z,6.17
2018-09-19T22:20:27.459Z,5.93
2018-09-19T22:22:55.371Z,6.43
2018-09-19T22:25:23.497Z,5.67
2018-09-19T22:27:51.476Z,6.37
2018-09-19T22:30:19.436Z,5.73
2018-09-19T22:32:47.408Z,6.00
2018-09-19T22:35:15.396Z,6.13
2018-09-19T22:37:43.348Z,5.87
2018-09-19T22:40:11.386Z,6.10
2018-09-19T22:42:39.356Z,6.53
